createdAt,value
2022-12-18T00:00:21.631Z,948.83
2022-12-18T00:00:52.164Z,948.83
2022-12-18T00:01:23.485Z,948.63
2022-12-18T00:01:54.460Z,948.63
2022-12-18T00:02:25.628Z,948.73
2022-12-18T00:02:56.640Z,948.73
2022-12-18T00:03:27.334Z,948.63
2022-12-18T00:03:58.307Z,948.63
2022-12-18T00:04:30.566Z,948.73
2022-12-18T00:05:00.261Z,948.73
2022-12-18T00:05:31.297Z,948.63
2022-12-18T00:06:02.407Z,948.63
2022-12-18T00:06:33.470Z,948.83
2022-12-18T00:07:04.563Z,948.83
2022-12-18T00:07:35.308Z,948.63
2022-12-18T00:08:09.343Z,948.63
2022-12-18T00:08:37.505Z,948.63
2022-12-18T00:09:08.531Z,948.53
2022-12-18T00:09:40.652Z,948.53
2022-12-18T00:10:10.381Z,948.63
2022-12-18T00:10:41.395Z,948.63
2022-12-18T00:11:12.407Z,948.63
2022-12-18T00:11:43.501Z,948.63
2022-12-18T00:12:45.490Z,948.63
2022-12-18T00:13:16.519Z,948.63
2022-12-18T00:13:47.493Z,948.63
2022-12-18T00:14:18.432Z,948.73
2022-12-18T00:14:50.266Z,948.73
2022-12-18T00:15:20.596Z,948.83
2022-12-18T00:15:51.742Z,948.83
2022-12-18T00:16:22.653Z,948.83
2022-12-18T00:16:53.484Z,948.83
2022-12-18T00:17:24.452Z,948.73
2022-12-18T00:17:55.442Z,948.73
2022-12-18T00:18:26.428Z,948.63
2022-12-18T00:18:57.395Z,948.63
2022-12-18T00:19:28.503Z,948.73
2022-12-18T00:20:00.428Z,948.73
2022-12-18T00:20:30.425Z,948.63
2022-12-18T00:21:01.452Z,948.63
2022-12-18T00:21:32.396Z,948.53
2022-12-18T00:22:03.533Z,948.53
2022-12-18T00:22:34.631Z,948.63
2022-12-18T00:23:05.368Z,948.63
2022-12-18T00:23:36.771Z,948.63
2022-12-18T00:24:07.222Z,948.63
2022-12-18T00:24:38.426Z,948.83
2022-12-18T00:25:10.709Z,948.63
2022-12-18T00:25:40.596Z,948.63
2022-12-18T00:26:11.460Z,948.63
2022-12-18T00:26:42.576Z,948.63
2022-12-18T00:27:13.628Z,948.63
2022-12-18T00:27:44.496Z,948.63
2022-12-18T00:28:15.525Z,948.73
2022-12-18T00:28:46.532Z,948.73
2022-12-18T00:29:17.502Z,948.53
2022-12-18T00:29:48.423Z,948.53
2022-12-18T00:30:20.594Z,948.73
2022-12-18T00:30:50.524Z,948.73
2022-12-18T00:31:21.646Z,948.63
2022-12-18T00:31:52.295Z,948.63
2022-12-18T00:32:23.564Z,948.42
2022-12-18T00:32:54.528Z,948.42
2022-12-18T00:33:25.651Z,948.42
2022-12-18T00:33:56.438Z,948.42
2022-12-18T00:34:27.288Z,948.32
2022-12-18T00:34:58.526Z,948.32
2022-12-18T00:35:30.593Z,948.42
2022-12-18T00:36:00.335Z,948.42
2022-12-18T00:36:31.419Z,948.53
2022-12-18T00:37:02.520Z,948.53
2022-12-18T00:37:33.501Z,948.73
2022-12-18T00:38:04.427Z,948.73
2022-12-18T00:38:35.587Z,948.63
2022-12-18T00:39:06.652Z,948.63
2022-12-18T00:39:37.660Z,948.73
2022-12-18T00:40:08.556Z,948.63
2022-12-18T00:40:40.724Z,948.63
2022-12-18T00:41:10.668Z,948.63
2022-12-18T00:41:41.591Z,948.63
2022-12-18T00:42:12.271Z,948.63
2022-12-18T00:42:43.552Z,948.63
2022-12-18T00:43:14.528Z,948.73
2022-12-18T00:43:45.482Z,948.73
2022-12-18T00:44:16.338Z,948.73
2022-12-18T00:44:47.512Z,948.73
2022-12-18T00:45:18.529Z,948.73
2022-12-18T00:45:50.514Z,948.73
2022-12-18T00:46:20.475Z,948.83
2022-12-18T00:46:51.543Z,948.83
2022-12-18T00:47:22.298Z,948.83
2022-12-18T00:47:53.512Z,948.83
2022-12-18T00:48:24.288Z,948.73
2022-12-18T00:48:55.380Z,948.73
2022-12-18T00:49:26.384Z,948.83
2022-12-18T00:49:57.328Z,948.83
2022-12-18T00:50:28.626Z,948.83
2022-12-18T00:51:00.491Z,948.83
2022-12-18T00:51:30.483Z,948.83
2022-12-18T00:52:01.619Z,948.83
2022-12-18T00:52:32.368Z,949.03
2022-12-18T00:53:03.468Z,949.03
2022-12-18T00:53:34.623Z,948.83
2022-12-18T00:54:05.435Z,948.83
2022-12-18T00:54:36.492Z,948.93
2022-12-18T00:55:07.339Z,948.93
2022-12-18T00:55:38.625Z,948.93
2022-12-18T00:56:10.518Z,948.73
2022-12-18T00:56:48.434Z,948.73
2022-12-18T00:57:11.677Z,948.93
2022-12-18T00:57:42.499Z,948.93
2022-12-18T00:58:13.703Z,948.93
2022-12-18T00:58:44.983Z,948.93
2022-12-18T00:59:15.613Z,949.03
2022-12-18T00:59:46.499Z,949.03
2022-12-18T01:00:20.482Z,948.93
2022-12-18T01:00:48.826Z,948.93
2022-12-18T01:01:20.629Z,948.93
2022-12-18T01:01:50.621Z,948.93
2022-12-18T01:02:21.683Z,949.03
2022-12-18T01:02:52.504Z,949.03
2022-12-18T01:03:23.570Z,948.93
2022-12-18T01:03:54.248Z,948.93
2022-12-18T01:04:25.663Z,949.03
2022-12-18T01:04:56.529Z,949.03
2022-12-18T01:05:27.399Z,948.93
2022-12-18T01:05:58.557Z,948.93
2022-12-18T01:06:30.595Z,949.03
2022-12-18T01:07:00.455Z,949.03
2022-12-18T01:07:31.557Z,948.93
2022-12-18T01:08:02.459Z,948.93
2022-12-18T01:08:33.559Z,948.83
2022-12-18T01:09:04.439Z,948.83
2022-12-18T01:09:35.525Z,948.93
2022-12-18T01:10:06.599Z,948.93
2022-12-18T01:10:37.355Z,948.93
2022-12-18T01:11:08.602Z,949.03
2022-12-18T01:11:40.666Z,949.03
2022-12-18T01:12:10.406Z,948.93
2022-12-18T01:12:41.336Z,948.93
2022-12-18T01:13:12.390Z,948.83
2022-12-18T01:13:43.404Z,948.83
2022-12-18T01:14:14.448Z,949.03
2022-12-18T01:14:45.531Z,949.03
2022-12-18T01:15:19.273Z,948.93
2022-12-18T01:15:47.335Z,948.93
2022-12-18T01:16:18.466Z,949.14
2022-12-18T01:16:50.683Z,949.14
2022-12-18T01:17:20.324Z,949.03
2022-12-18T01:17:51.648Z,949.03
2022-12-18T01:18:22.397Z,949.14
2022-12-18T01:18:53.887Z,949.14
2022-12-18T01:19:24.313Z,949.03
2022-12-18T01:19:55.594Z,949.03
2022-12-18T01:20:26.660Z,948.93
2022-12-18T01:20:57.549Z,948.93
2022-12-18T01:21:28.490Z,949.03
2022-12-18T01:22:00.378Z,949.03
2022-12-18T01:22:30.580Z,949.24
2022-12-18T01:23:01.741Z,949.24
2022-12-18T01:23:32.496Z,949.03
2022-12-18T01:24:03.639Z,949.03
2022-12-18T01:24:34.592Z,948.83
2022-12-18T01:25:05.530Z,948.83
2022-12-18T01:25:36.642Z,949.03
2022-12-18T01:26:07.480Z,949.03
2022-12-18T01:26:38.775Z,949.14
2022-12-18T01:27:10.723Z,948.93
2022-12-18T01:27:40.580Z,948.93
2022-12-18T01:28:11.593Z,948.93
2022-12-18T01:28:42.441Z,948.93
2022-12-18T01:29:13.564Z,949.03
2022-12-18T01:29:44.620Z,949.03
2022-12-18T01:30:18.367Z,948.93
2022-12-18T01:30:46.560Z,948.93
2022-12-18T01:31:17.653Z,949.03
2022-12-18T01:31:48.635Z,949.03
2022-12-18T01:32:20.432Z,949.14
2022-12-18T01:32:50.537Z,949.14
2022-12-18T01:33:21.641Z,949.14
2022-12-18T01:33:52.348Z,949.14
2022-12-18T01:34:23.697Z,949.03
2022-12-18T01:34:54.606Z,949.03
2022-12-18T01:35:25.561Z,949.14
2022-12-18T01:35:56.661Z,949.14
2022-12-18T01:36:27.399Z,949.14
2022-12-18T01:36:58.522Z,949.14
2022-12-18T01:37:30.586Z,948.93
2022-12-18T01:38:00.610Z,948.93
2022-12-18T01:38:31.464Z,949.03
2022-12-18T01:39:02.552Z,949.03
2022-12-18T01:39:33.560Z,949.44
2022-12-18T01:40:04.516Z,949.44
2022-12-18T01:40:38.102Z,949.24
2022-12-18T01:41:06.747Z,949.24
2022-12-18T01:41:38.276Z,949.24
2022-12-18T01:42:09.004Z,949.44
2022-12-18T01:42:41.332Z,949.44
2022-12-18T01:43:11.695Z,949.24
2022-12-18T01:43:41.988Z,949.24
2022-12-18T01:44:12.655Z,949.34
2022-12-18T01:44:43.595Z,949.34
2022-12-18T01:45:17.605Z,949.44
2022-12-18T01:45:45.827Z,949.44
2022-12-18T01:46:16.674Z,949.24
2022-12-18T01:46:47.602Z,949.24
2022-12-18T01:47:18.828Z,949.24
2022-12-18T01:47:50.704Z,949.24
2022-12-18T01:48:20.951Z,949.34
2022-12-18T01:48:52.386Z,949.34
2022-12-18T01:49:22.842Z,949.24
2022-12-18T01:49:53.752Z,949.24
2022-12-18T01:55:18.582Z,949.24
2022-12-18T01:55:29.836Z,949.24
2022-12-18T01:56:00.975Z,949.24
2022-12-18T01:56:45.259Z,949.24
2022-12-18T01:57:10.185Z,949.24
2022-12-18T01:57:38.564Z,949.44
2022-12-18T01:58:10.980Z,949.34
2022-12-18T01:58:40.828Z,949.34
2022-12-18T01:59:11.676Z,949.24
2022-12-18T01:59:42.685Z,949.24
2022-12-18T02:00:20.077Z,949.44
2022-12-18T02:00:44.591Z,949.44
2022-12-18T02:01:15.944Z,949.34
2022-12-18T02:01:46.816Z,949.34
2022-12-18T02:02:17.791Z,949.24
2022-12-18T02:02:48.831Z,949.24
2022-12-18T02:03:20.533Z,949.44
2022-12-18T02:03:50.592Z,949.44
2022-12-18T02:04:21.404Z,949.34
2022-12-18T02:04:52.619Z,949.34
2022-12-18T02:05:23.677Z,949.34
2022-12-18T02:05:54.522Z,949.34
2022-12-18T02:06:25.676Z,949.44
2022-12-18T02:06:56.615Z,949.44
2022-12-18T02:07:27.623Z,949.24
2022-12-18T02:07:58.543Z,949.24
2022-12-18T02:08:31.013Z,949.03
2022-12-18T02:09:00.427Z,949.03
2022-12-18T02:09:31.512Z,949.34
2022-12-18T02:10:02.633Z,949.34
2022-12-18T02:10:33.692Z,949.03
2022-12-18T02:11:04.663Z,949.03
2022-12-18T02:11:35.582Z,949.24
2022-12-18T02:12:09.054Z,949.24
2022-12-18T02:12:37.678Z,949.44
2022-12-18T02:13:08.700Z,949.24
2022-12-18T02:13:40.747Z,949.24
2022-12-18T02:14:10.662Z,949.34
2022-12-18T02:14:41.430Z,949.34
2022-12-18T02:15:15.398Z,949.24
2022-12-18T02:15:43.592Z,949.24
2022-12-18T02:16:14.779Z,949.24
2022-12-18T02:16:45.843Z,949.24
2022-12-18T02:17:16.582Z,949.24
2022-12-18T02:17:47.594Z,949.24
2022-12-18T02:18:18.608Z,949.24
2022-12-18T02:18:50.419Z,949.24
2022-12-18T02:19:20.674Z,949.34
2022-12-18T02:19:51.375Z,949.34
2022-12-18T02:20:22.444Z,949.03
2022-12-18T02:20:53.531Z,949.03
2022-12-18T02:21:24.502Z,949.03
2022-12-18T02:21:55.475Z,949.03
2022-12-18T02:22:26.467Z,949.34
2022-12-18T02:22:57.408Z,949.34
2022-12-18T02:23:28.409Z,949.24
2022-12-18T02:24:00.719Z,949.24
2022-12-18T02:24:30.663Z,949.14
2022-12-18T02:25:01.502Z,949.14
2022-12-18T02:25:32.603Z,949.24
2022-12-18T02:26:03.662Z,949.24
2022-12-18T02:26:34.759Z,949.24
2022-12-18T02:27:05.594Z,949.24
2022-12-18T02:27:36.392Z,949.44
2022-12-18T02:28:07.377Z,949.44
2022-12-18T02:28:38.506Z,949.34
2022-12-18T02:29:10.699Z,949.34
2022-12-18T02:29:40.445Z,949.34
2022-12-18T02:30:14.210Z,949.14
2022-12-18T02:30:42.587Z,949.14
2022-12-18T02:31:13.696Z,949.14
2022-12-18T02:31:44.458Z,949.14
2022-12-18T02:32:15.534Z,949.34
2022-12-18T02:32:46.542Z,949.34
2022-12-18T02:33:17.599Z,949.24
2022-12-18T02:33:48.717Z,949.24
2022-12-18T02:34:20.501Z,949.34
2022-12-18T02:34:50.610Z,949.34
2022-12-18T02:35:21.494Z,949.44
2022-12-18T02:35:52.803Z,949.44
2022-12-18T02:36:23.646Z,949.44
2022-12-18T02:36:54.650Z,949.44
2022-12-18T02:37:25.557Z,949.24
2022-12-18T02:37:56.454Z,949.24
2022-12-18T02:38:27.474Z,949.44
2022-12-18T02:38:58.599Z,949.44
2022-12-18T02:39:30.481Z,949.34
2022-12-18T02:40:00.854Z,949.34
2022-12-18T02:40:31.722Z,949.44
2022-12-18T02:41:02.711Z,949.44
2022-12-18T02:41:33.519Z,949.24
2022-12-18T02:42:04.734Z,949.24
2022-12-18T02:42:35.693Z,949.44
2022-12-18T02:43:06.581Z,949.44
2022-12-18T02:43:37.928Z,949.24
2022-12-18T02:44:08.701Z,949.34
2022-12-18T02:44:40.779Z,949.34
2022-12-18T02:45:13.444Z,949.24
2022-12-18T02:45:41.482Z,949.24
2022-12-18T02:46:12.807Z,949.51
2022-12-18T02:46:43.675Z,949.51
2022-12-18T02:47:14.714Z,949.61
2022-12-18T02:47:45.649Z,949.61
2022-12-18T02:48:16.583Z,949.44
2022-12-18T02:48:47.841Z,949.44
2022-12-18T02:49:18.603Z,949.24
2022-12-18T02:49:50.590Z,949.24
2022-12-18T02:50:20.566Z,949.44
2022-12-18T02:50:51.431Z,949.44
2022-12-18T02:51:22.674Z,949.61
2022-12-18T02:51:53.580Z,949.61
2022-12-18T02:52:24.667Z,949.34
2022-12-18T02:52:55.665Z,949.34
2022-12-18T02:53:26.438Z,949.44
2022-12-18T02:53:57.838Z,949.44
2022-12-18T02:54:28.659Z,949.51
2022-12-18T02:55:00.608Z,949.51
2022-12-18T02:55:30.717Z,949.34
2022-12-18T02:56:01.663Z,949.34
2022-12-18T02:56:33.074Z,949.44
2022-12-18T02:57:03.620Z,949.44
2022-12-18T02:57:34.901Z,949.61
2022-12-18T02:58:05.750Z,949.61
2022-12-18T02:58:36.534Z,949.44
2022-12-18T02:59:07.599Z,949.44
2022-12-18T02:59:38.623Z,949.44
2022-12-18T03:00:13.370Z,949.34
2022-12-18T03:00:40.806Z,949.34
2022-12-18T03:01:11.502Z,949.44
2022-12-18T03:01:42.785Z,949.44
2022-12-18T03:02:13.899Z,949.24
2022-12-18T03:02:44.751Z,949.24
2022-12-18T03:03:15.669Z,949.51
2022-12-18T03:03:46.554Z,949.51
2022-12-18T03:04:17.540Z,949.44
2022-12-18T03:04:48.551Z,949.44
2022-12-18T03:05:20.678Z,949.51
2022-12-18T03:05:50.461Z,949.51
2022-12-18T03:06:21.455Z,949.51
2022-12-18T03:06:52.595Z,949.51
2022-12-18T03:07:23.747Z,949.51
2022-12-18T03:07:54.700Z,949.51
2022-12-18T03:08:25.712Z,949.71
2022-12-18T03:08:56.459Z,949.71
2022-12-18T03:09:27.738Z,949.61
2022-12-18T03:09:58.520Z,949.61
2022-12-18T03:10:30.857Z,949.71
2022-12-18T03:11:00.440Z,949.71
2022-12-18T03:11:31.833Z,949.61
2022-12-18T03:12:02.673Z,949.61
2022-12-18T03:12:33.693Z,949.61
2022-12-18T03:13:04.711Z,949.61
2022-12-18T03:13:36.233Z,949.34
2022-12-18T03:14:06.630Z,949.34
2022-12-18T03:14:37.669Z,949.44
2022-12-18T03:15:17.257Z,949.34
2022-12-18T03:15:40.673Z,949.34
2022-12-18T03:16:10.739Z,949.44
2022-12-18T03:16:41.511Z,949.44
2022-12-18T03:17:12.649Z,949.44
2022-12-18T03:17:43.765Z,949.44
2022-12-18T03:18:14.764Z,949.24
2022-12-18T03:18:45.767Z,949.24
2022-12-18T03:19:17.028Z,949.61
2022-12-18T03:19:47.698Z,949.61
2022-12-18T03:20:18.663Z,949.44
2022-12-18T03:20:50.769Z,949.44
2022-12-18T03:21:20.745Z,949.44
2022-12-18T03:21:51.707Z,949.44
2022-12-18T03:22:22.687Z,949.34
2022-12-18T03:22:53.722Z,949.34
2022-12-18T03:23:26.234Z,949.44
2022-12-18T03:23:55.667Z,949.44
2022-12-18T03:24:26.566Z,949.34
2022-12-18T03:24:57.574Z,949.34
2022-12-18T03:25:28.698Z,949.51
2022-12-18T03:26:05.866Z,949.51
2022-12-18T03:26:30.942Z,949.44
2022-12-18T03:27:02.033Z,949.44
2022-12-18T03:27:32.764Z,949.51
2022-12-18T03:28:03.663Z,949.51
2022-12-18T03:28:34.721Z,949.44
2022-12-18T03:29:05.867Z,949.44
2022-12-18T03:29:36.765Z,949.44
2022-12-18T03:30:10.508Z,949.44
2022-12-18T03:30:38.614Z,949.44
2022-12-18T03:31:10.722Z,949.44
2022-12-18T03:31:40.818Z,949.44
2022-12-18T03:32:11.575Z,949.44
2022-12-18T03:32:42.740Z,949.44
2022-12-18T03:33:13.763Z,949.44
2022-12-18T03:33:44.720Z,949.44
2022-12-18T03:34:15.777Z,949.61
2022-12-18T03:34:46.571Z,949.61
2022-12-18T03:35:17.706Z,949.44
2022-12-18T03:35:48.596Z,949.44
2022-12-18T03:36:21.005Z,949.51
2022-12-18T03:36:50.983Z,949.51
2022-12-18T03:37:21.702Z,949.61
2022-12-18T03:37:52.804Z,949.61
2022-12-18T03:38:23.744Z,949.51
2022-12-18T03:38:54.667Z,949.51
2022-12-18T03:39:25.730Z,949.51
2022-12-18T03:39:56.548Z,949.51
2022-12-18T03:40:27.725Z,949.34
2022-12-18T03:40:58.785Z,949.34
2022-12-18T03:41:30.545Z,949.61
2022-12-18T03:42:00.705Z,949.61
2022-12-18T03:42:31.727Z,949.51
2022-12-18T03:43:02.747Z,949.51
2022-12-18T03:43:33.705Z,949.71
2022-12-18T03:44:04.582Z,949.71
2022-12-18T03:44:35.543Z,949.51
2022-12-18T03:45:09.567Z,949.51
2022-12-18T03:45:37.693Z,949.44
2022-12-18T03:46:08.781Z,949.51
2022-12-18T03:46:40.728Z,949.51
2022-12-18T03:47:10.776Z,949.81
2022-12-18T03:47:41.695Z,949.81
2022-12-18T03:48:12.532Z,949.81
2022-12-18T03:48:43.797Z,949.81
2022-12-18T03:49:14.682Z,949.51
2022-12-18T03:49:45.767Z,949.51
2022-12-18T03:50:16.729Z,949.71
2022-12-18T03:50:47.989Z,949.71
2022-12-18T03:51:18.588Z,949.51
2022-12-18T03:51:50.764Z,949.51
2022-12-18T03:52:20.798Z,949.44
2022-12-18T03:52:51.557Z,949.44
2022-12-18T03:53:22.722Z,949.44
2022-12-18T03:53:53.684Z,949.44
2022-12-18T03:54:24.762Z,949.51
2022-12-18T03:54:55.601Z,949.51
2022-12-18T03:55:26.603Z,949.61
2022-12-18T03:55:57.733Z,949.61
2022-12-18T03:56:29.220Z,949.71
2022-12-18T03:57:00.824Z,949.71
2022-12-18T03:57:30.857Z,949.44
2022-12-18T03:58:01.902Z,949.44
2022-12-18T03:58:32.891Z,949.51
2022-12-18T03:59:03.791Z,949.51
2022-12-18T03:59:34.579Z,949.61
2022-12-18T04:00:08.690Z,949.61
2022-12-18T04:00:36.702Z,949.61
2022-12-18T04:03:42.958Z,949.71
2022-12-18T04:04:13.582Z,949.51
2022-12-18T04:04:44.729Z,949.51
2022-12-18T04:05:15.720Z,949.44
2022-12-18T04:05:46.703Z,949.44
2022-12-18T04:06:17.692Z,949.51
2022-12-18T04:06:48.664Z,949.51
2022-12-18T04:07:20.717Z,949.51
2022-12-18T04:07:50.851Z,949.51
2022-12-18T04:08:21.459Z,949.51
2022-12-18T04:08:52.748Z,949.51
2022-12-18T04:09:23.605Z,949.51
2022-12-18T04:09:54.528Z,949.51
2022-12-18T04:10:25.539Z,949.61
2022-12-18T04:10:56.608Z,949.61
2022-12-18T04:11:27.742Z,949.71
2022-12-18T04:11:58.810Z,949.71
2022-12-18T04:12:30.748Z,949.61
2022-12-18T04:13:00.770Z,949.61
2022-12-18T04:13:31.741Z,949.71
2022-12-18T04:14:07.074Z,949.71
2022-12-18T04:14:33.881Z,949.61
2022-12-18T04:15:07.382Z,949.61
2022-12-18T04:15:35.821Z,949.71
2022-12-18T04:16:06.627Z,949.71
2022-12-18T04:16:37.833Z,949.71
2022-12-18T04:17:08.825Z,949.71
2022-12-18T04:17:40.610Z,949.71
2022-12-18T04:18:10.745Z,949.61
2022-12-18T04:18:41.707Z,949.61
2022-12-18T04:19:12.659Z,949.61
2022-12-18T04:19:43.706Z,949.61
2022-12-18T04:20:14.745Z,949.61
2022-12-18T04:20:45.705Z,949.61
2022-12-18T04:21:16.782Z,949.91
2022-12-18T04:21:47.721Z,949.91
2022-12-18T04:22:18.685Z,949.71
2022-12-18T04:22:50.741Z,949.71
2022-12-18T04:23:20.860Z,949.61
2022-12-18T04:23:51.646Z,949.61
2022-12-18T04:24:22.629Z,949.81
2022-12-18T04:24:53.762Z,949.81
2022-12-18T04:25:24.615Z,949.71
2022-12-18T04:25:55.906Z,949.71
2022-12-18T04:26:26.747Z,949.81
2022-12-18T04:26:57.734Z,949.81
2022-12-18T04:27:28.850Z,949.71
2022-12-18T04:28:00.565Z,949.71
2022-12-18T04:28:30.876Z,949.61
2022-12-18T04:29:01.608Z,949.61
2022-12-18T04:29:32.901Z,949.81
2022-12-18T04:30:06.579Z,949.81
2022-12-18T04:30:34.801Z,949.91
2022-12-18T04:31:05.861Z,949.91
2022-12-18T04:31:36.672Z,949.91
2022-12-18T04:32:07.777Z,949.91
2022-12-18T04:32:38.800Z,949.61
2022-12-18T04:33:10.760Z,949.71
2022-12-18T04:33:41.070Z,949.71
2022-12-18T04:34:11.744Z,949.61
2022-12-18T04:34:42.753Z,949.61
2022-12-18T04:35:13.910Z,949.91
2022-12-18T04:35:44.780Z,949.91
2022-12-18T04:36:15.744Z,949.71
2022-12-18T04:36:46.625Z,949.71
2022-12-18T04:37:17.846Z,950.02
2022-12-18T04:37:48.914Z,950.02
2022-12-18T04:38:20.739Z,949.91
2022-12-18T04:38:50.910Z,949.91
2022-12-18T04:39:21.765Z,949.61
2022-12-18T04:39:52.941Z,949.61
2022-12-18T04:40:23.690Z,949.81
2022-12-18T04:40:54.530Z,949.81
2022-12-18T04:41:25.829Z,950.12
2022-12-18T04:41:56.754Z,950.12
2022-12-18T04:42:27.722Z,949.61
2022-12-18T04:42:58.906Z,949.61
2022-12-18T04:43:30.967Z,949.81
2022-12-18T04:44:00.795Z,949.81
2022-12-18T04:44:31.754Z,949.81
2022-12-18T04:45:05.559Z,949.81
2022-12-18T04:45:33.790Z,949.81
2022-12-18T04:46:04.851Z,949.81
2022-12-18T04:46:35.937Z,949.71
2022-12-18T04:47:06.652Z,949.71
2022-12-18T04:47:37.780Z,949.91
2022-12-18T04:48:08.877Z,949.81
2022-12-18T04:48:40.983Z,949.81
2022-12-18T04:49:10.975Z,949.81
2022-12-18T04:49:41.685Z,949.81
2022-12-18T04:50:12.697Z,949.81
2022-12-18T04:50:43.917Z,949.81
2022-12-18T04:51:14.778Z,949.71
2022-12-18T04:51:45.777Z,949.71
2022-12-18T04:52:16.698Z,949.61
2022-12-18T04:52:47.826Z,949.61
2022-12-18T04:53:18.946Z,949.61
2022-12-18T04:53:50.974Z,949.61
2022-12-18T04:54:20.925Z,949.61
2022-12-18T04:54:51.654Z,949.61
2022-12-18T04:55:22.917Z,949.51
2022-12-18T04:55:53.907Z,949.51
2022-12-18T04:56:24.696Z,949.81
2022-12-18T04:56:55.778Z,949.81
2022-12-18T04:57:26.828Z,949.61
2022-12-18T04:57:57.959Z,949.61
2022-12-18T04:58:28.738Z,949.71
2022-12-18T05:00:05.741Z,949.71
2022-12-18T05:00:35.522Z,949.51
2022-12-18T05:01:03.799Z,949.51
2022-12-18T05:01:35.396Z,949.71
2022-12-18T05:02:06.156Z,949.71
2022-12-18T05:02:36.806Z,949.44
2022-12-18T05:03:07.761Z,949.44
2022-12-18T05:03:39.569Z,949.71
2022-12-18T05:04:10.999Z,949.81
2022-12-18T05:04:41.001Z,949.81
2022-12-18T05:05:11.651Z,949.71
2022-12-18T05:05:42.663Z,949.71
2022-12-18T05:06:13.866Z,949.71
2022-12-18T05:06:44.742Z,949.71
2022-12-18T05:07:15.789Z,949.81
2022-12-18T05:07:46.819Z,949.81
2022-12-18T05:08:17.828Z,949.71
2022-12-18T05:08:48.877Z,949.71
2022-12-18T05:09:20.949Z,949.91
2022-12-18T05:09:50.958Z,949.91
2022-12-18T05:10:21.703Z,949.91
2022-12-18T05:10:52.756Z,949.91
2022-12-18T05:11:23.738Z,949.71
2022-12-18T05:11:54.607Z,949.71
2022-12-18T05:12:25.870Z,949.81
2022-12-18T05:12:56.767Z,949.81
2022-12-18T05:13:27.980Z,949.91
2022-12-18T05:13:58.793Z,949.91
2022-12-18T05:14:30.659Z,949.91
2022-12-18T05:15:03.662Z,949.91
2022-12-18T05:15:31.911Z,949.71
2022-12-18T05:16:02.937Z,949.71
2022-12-18T05:16:33.884Z,950.12
2022-12-18T05:17:04.932Z,950.12
2022-12-18T05:17:35.871Z,949.91
2022-12-18T05:18:06.732Z,949.91
2022-12-18T05:18:37.760Z,950.22
2022-12-18T05:19:08.860Z,949.91
2022-12-18T05:19:40.962Z,949.91
2022-12-18T05:20:10.902Z,949.81
2022-12-18T05:20:41.794Z,949.81
2022-12-18T05:21:12.785Z,950.02
2022-12-18T05:21:43.819Z,950.02
2022-12-18T05:22:14.898Z,950.02
2022-12-18T05:22:45.854Z,950.02
2022-12-18T05:23:16.793Z,949.91
2022-12-18T05:23:48.050Z,949.91
2022-12-18T05:24:18.824Z,949.81
2022-12-18T05:24:51.004Z,949.81
2022-12-18T05:25:21.052Z,950.12
2022-12-18T05:25:51.894Z,950.12
2022-12-18T05:26:23.008Z,949.91
2022-12-18T05:26:53.888Z,949.91
2022-12-18T05:27:24.680Z,950.02
2022-12-18T05:27:55.819Z,950.02
2022-12-18T05:28:26.867Z,949.91
2022-12-18T05:28:57.992Z,949.91
2022-12-18T05:29:28.809Z,949.91
2022-12-18T05:30:03.714Z,949.91
2022-12-18T05:30:30.926Z,950.02
2022-12-18T05:31:01.981Z,950.02
2022-12-18T05:31:38.916Z,949.91
2022-12-18T05:32:03.948Z,949.91
2022-12-18T05:32:34.905Z,950.02
2022-12-18T05:33:05.933Z,950.02
2022-12-18T05:33:36.760Z,950.12
2022-12-18T05:34:07.989Z,950.12
2022-12-18T05:34:38.893Z,950.02
2022-12-18T05:35:10.746Z,950.02
2022-12-18T05:35:40.992Z,950.02
2022-12-18T05:36:11.839Z,950.12
2022-12-18T05:36:42.743Z,950.12
2022-12-18T05:37:13.707Z,950.02
2022-12-18T05:37:44.637Z,950.02
2022-12-18T05:38:15.678Z,950.02
2022-12-18T05:38:46.671Z,950.02
2022-12-18T05:39:17.930Z,950.22
2022-12-18T05:39:48.826Z,950.22
2022-12-18T05:40:20.931Z,950.02
2022-12-18T05:40:50.960Z,950.02
2022-12-18T05:41:21.790Z,950.02
2022-12-18T05:41:53.289Z,950.02
2022-12-18T05:42:24.009Z,950.22
2022-12-18T05:42:54.767Z,950.22
2022-12-18T05:43:25.763Z,950.02
2022-12-18T05:43:56.822Z,950.02
2022-12-18T05:44:28.048Z,950.02
2022-12-18T05:44:58.902Z,950.02
2022-12-18T05:45:33.713Z,949.91
2022-12-18T05:46:00.870Z,949.91
2022-12-18T05:46:32.116Z,950.02
2022-12-18T05:47:03.063Z,950.02
2022-12-18T05:47:33.802Z,949.91
2022-12-18T05:48:04.916Z,949.91
2022-12-18T05:48:35.907Z,950.12
2022-12-18T05:49:06.676Z,950.12
2022-12-18T05:49:37.945Z,949.91
2022-12-18T05:50:08.958Z,950.02
2022-12-18T05:50:40.969Z,950.02
2022-12-18T05:51:10.945Z,950.02
2022-12-18T05:51:41.896Z,950.02
2022-12-18T05:52:12.891Z,950.02
2022-12-18T05:52:43.917Z,950.02
2022-12-18T05:53:14.869Z,949.91
2022-12-18T05:53:46.027Z,949.91
2022-12-18T05:54:16.719Z,949.91
2022-12-18T05:54:47.983Z,949.91
2022-12-18T05:55:18.726Z,950.12
2022-12-18T05:55:51.136Z,950.12
2022-12-18T05:56:21.020Z,949.81
2022-12-18T05:56:51.801Z,949.81
2022-12-18T05:57:22.884Z,950.02
2022-12-18T05:57:53.974Z,950.02
2022-12-18T05:58:24.754Z,949.91
2022-12-18T05:58:55.805Z,949.91
2022-12-18T05:59:26.792Z,950.22
2022-12-18T05:59:57.906Z,950.22
2022-12-18T06:00:31.598Z,950.22
2022-12-18T06:01:00.934Z,950.22
2022-12-18T06:01:30.974Z,950.12
2022-12-18T06:02:01.897Z,950.12
2022-12-18T06:02:33.141Z,949.91
2022-12-18T06:03:03.893Z,949.91
2022-12-18T06:03:34.972Z,950.02
2022-12-18T06:04:05.644Z,950.02
2022-12-18T06:04:36.819Z,950.22
2022-12-18T06:05:07.837Z,950.22
2022-12-18T06:05:38.926Z,950.12
2022-12-18T06:06:10.590Z,950.02
2022-12-18T06:06:40.976Z,950.02
2022-12-18T06:07:11.958Z,950.22
2022-12-18T06:07:42.817Z,950.22
2022-12-18T06:08:13.649Z,950.22
2022-12-18T06:08:46.697Z,950.22
2022-12-18T06:09:15.998Z,950.12
2022-12-18T06:09:46.785Z,950.12
2022-12-18T06:10:17.908Z,950.42
2022-12-18T06:10:48.906Z,950.42
2022-12-18T06:11:21.040Z,949.91
2022-12-18T06:11:51.062Z,949.91
2022-12-18T06:12:21.721Z,950.22
2022-12-18T06:12:52.834Z,950.22
2022-12-18T06:13:23.852Z,950.12
2022-12-18T06:13:58.143Z,950.12
2022-12-18T06:14:25.744Z,950.12
2022-12-18T06:14:56.859Z,950.12
2022-12-18T06:15:30.755Z,950.22
2022-12-18T06:15:59.021Z,950.22
2022-12-18T06:16:30.924Z,950.32
2022-12-18T06:17:00.954Z,950.32
2022-12-18T06:17:32.097Z,950.22
2022-12-18T06:18:03.025Z,950.22
2022-12-18T06:18:33.930Z,950.12
2022-12-18T06:19:04.850Z,950.12
2022-12-18T06:19:36.069Z,950.12
2022-12-18T06:20:06.681Z,950.12
2022-12-18T06:20:37.931Z,950.22
2022-12-18T06:21:08.949Z,950.12
2022-12-18T06:21:40.898Z,950.12
2022-12-18T06:22:11.148Z,949.91
2022-12-18T06:22:42.035Z,949.91
2022-12-18T06:23:12.895Z,950.12
2022-12-18T06:23:43.953Z,950.12
2022-12-18T06:24:14.822Z,950.22
2022-12-18T06:24:45.946Z,950.22
2022-12-18T06:25:16.825Z,950.22
2022-12-18T06:25:47.932Z,950.22
2022-12-18T06:26:22.080Z,950.12
2022-12-18T06:26:51.062Z,950.12
2022-12-18T06:27:21.120Z,950.22
2022-12-18T06:27:51.858Z,950.22
2022-12-18T06:28:22.994Z,950.42
2022-12-18T06:28:53.913Z,950.42
2022-12-18T06:29:24.891Z,950.12
2022-12-18T06:29:55.751Z,950.12
2022-12-18T06:30:29.587Z,950.12
2022-12-18T06:30:57.927Z,950.12
2022-12-18T06:31:28.985Z,950.12
2022-12-18T06:32:01.180Z,950.12
2022-12-18T06:32:30.876Z,950.32
2022-12-18T06:33:01.945Z,950.32
2022-12-18T06:33:33.066Z,950.32
2022-12-18T06:34:03.957Z,950.32
2022-12-18T06:34:34.723Z,950.22
2022-12-18T06:35:05.966Z,950.22
2022-12-18T06:35:36.750Z,950.52